Airfield :
LOGIN :

Register | Disclaimer

   EN    FR    IT 

 










Legend :    VFR   Marginal VFR   IFR   Intensive IFR   Very Intensive IFR
Visi :
Ceiling :
>= 8 km
>= 3000ft
5 to 8 km
1000 to 3000 ft
1500m to 5 km
500 to 1000 ft
800 to 1500m
200 to 500 ft
< 800m
< 200 ft
Symbols :   Thunderstorms  Fog  Heavy snow  Heavy precipitations  Wind > 20 kt
SIGMETs :     Misc.  Thunderstorms  Icing  Turbulence  Mountain Waves  Volcanic Ashes






- Airport Elevation : 200 ft


EVGA - Lielvarde

CURRENT METAR :
  • 301120Z 22013KT 9999 OVC008 01/00 Q0985 NOSIG

EXPIRED METARs :
  • 301050Z 22014KT 9999 OVC009 01/M00 Q0985 NOSIG
  • 301020Z 22015KT 9999 OVC010 01/M00 Q0985 NOSIG
  • 300950Z 22017KT 9999 OVC009 01/M00 Q0986 NOSIG
  • 300920Z 22016KT 8000 -RA BKN009 OVC015 01/M00 Q0986 NOSIG
  • 300850Z 21017KT 9999 -SN BKN009 OVC015 01/M00 Q0986 NOSIG

TAF TAF EVGA
Valid from the 30 at 09:00 until the 31 at 09:00 UTC


300826Z 3009/3109 20014KT 9999 OVC007
TEMPO 3009/3012 20015G28KT 4000 -SN -RASN OVC004
TEMPO 3012/3103 4000 BR OVC004
BECMG 3100/3102 28010KT
BECMG 3103/3105 BKN015



MET'MAP, your aeronautical weather chart ! - Copyright ORBIFLY December 2007 - Disclaimer

ORBIFLY MET'MAP TEAM :

Programming & Development : Alexandra Zaïnal
Original concept : Baudouin d'Aumeries
Technical & hardware support : Manuel Goepfert
Assistance : Marc-Olivier Méhu




SOURCES & CREDITS :

   NOAA